createdAt,value
2023-04-14T08:31:35.638Z,99133.09
2023-04-14T08:36:37.172Z,99132.69
2023-04-14T08:41:38.631Z,99135.03
2023-04-14T08:46:40.036Z,99135.97
2023-04-14T08:51:44.670Z,99129.25
2023-04-14T08:56:46.089Z,99129.25
2023-04-14T09:01:47.509Z,99119.69
2023-04-14T09:06:48.932Z,99122.19
2023-04-14T09:11:50.551Z,99115.34
2023-04-14T09:16:53.773Z,99121.09
2023-04-14T09:21:55.900Z,99115.09
2023-04-14T09:26:57.338Z,99106.06
2023-04-14T09:31:59.019Z,99113.97
2023-04-14T09:37:07.315Z,99121.09
2023-04-14T09:42:08.741Z,99118.06
2023-04-14T09:47:10.443Z,99124.06
2023-04-14T09:52:11.825Z,99124.91
2023-04-14T09:57:24.485Z,99128.47
2023-04-14T10:02:26.947Z,99124.91
2023-04-14T10:07:28.776Z,99125.16
2023-04-14T10:12:30.320Z,99105.75
2023-04-14T10:17:33.888Z,99105.75
2023-04-14T10:22:36.125Z,99106.84
2023-04-14T10:27:37.672Z,99103.03
2023-04-14T10:32:40.441Z,99098.63
2023-04-14T10:37:51.950Z,99110.09
2023-04-14T10:42:54.239Z,99103.56
2023-04-14T10:47:55.760Z,99100.53
2023-04-14T10:52:58.704Z,99098.34
2023-04-14T10:58:05.101Z,99097.56
2023-04-14T11:03:16.867Z,99092.63
2023-04-14T11:08:33.827Z,99101.13
2023-04-14T11:13:35.374Z,99084.41
2023-04-14T11:18:45.520Z,99073.47
2023-04-14T11:23:47.968Z,99066.91
2023-04-14T11:28:49.419Z,99065.56
2023-04-14T11:33:50.847Z,99060.34
2023-04-14T11:38:52.230Z,99056.50
2023-04-14T11:43:54.246Z,99056.50
2023-04-14T11:48:56.414Z,99056.81
2023-04-14T11:53:59.567Z,99049.97
2023-04-14T11:59:01.850Z,99039.03
2023-04-14T12:04:03.499Z,99037.13
2023-04-14T12:09:08.325Z,99024.53
2023-04-14T12:14:09.721Z,99021.78
2023-04-14T12:19:11.223Z,99029.75
2023-04-14T12:24:12.602Z,99027.56
2023-04-14T12:29:14.123Z,99022.63
2023-04-14T12:34:17.763Z,99014.97
2023-04-14T12:39:20.355Z,99009.50
2023-04-14T12:44:24.198Z,99006.50
2023-04-14T12:49:32.876Z,99002.66
2023-04-14T12:54:47.426Z,99007.03
2023-04-14T12:59:48.927Z,99005.69
2023-04-14T13:04:50.390Z,98993.09
2023-04-14T13:09:52.427Z,99000.22
2023-04-14T13:14:53.868Z,99001.03
2023-04-14T13:19:55.268Z,98990.91
2023-04-14T13:24:59.735Z,98984.91
2023-04-14T13:30:01.516Z,98982.44
2023-04-14T13:35:02.992Z,98979.09
2023-04-14T13:40:04.694Z,98979.44
2023-04-14T13:45:06.961Z,98981.63
2023-04-14T13:50:08.650Z,98973.13
2023-04-14T13:55:10.036Z,98972.59
2023-04-14T14:00:11.758Z,98972.28
2023-04-14T14:05:14.520Z,98975.84
2023-04-14T14:10:15.893Z,98972.81
2023-04-14T14:15:17.341Z,98981.84
2023-04-14T14:20:18.915Z,98979.66
2023-04-14T14:25:21.439Z,98983.22
2023-04-14T14:30:23.022Z,98975.84
2023-04-14T14:35:24.449Z,98988.69
2023-04-14T14:40:25.923Z,98986.78
2023-04-14T14:45:31.093Z,98992.22
2023-04-14T14:50:33.003Z,98988.66
2023-04-14T14:55:35.078Z,98994.97
2023-04-14T15:00:37.850Z,98996.03
2023-04-14T15:05:39.265Z,98986.72
2023-04-14T15:10:40.777Z,98989.75
2023-04-14T15:15:42.472Z,99001.22
2023-04-14T15:20:43.869Z,98999.06
2023-04-14T15:25:45.373Z,99003.72
2023-04-14T15:30:46.776Z,99000.22
2023-04-14T15:35:48.213Z,99005.41
2023-04-14T15:40:49.599Z,99004.31
2023-04-14T15:45:51.261Z,98998.31
2023-04-14T15:50:52.654Z,99008.41
2023-04-14T15:55:54.324Z,99004.84
2023-04-14T16:00:56.060Z,99015.78
2023-04-14T16:06:06.551Z,99011.94
2023-04-14T16:11:13.066Z,99007.31
2023-04-14T16:16:15.048Z,99010.59
2023-04-14T16:21:16.666Z,99007.03
2023-04-14T16:26:18.103Z,99002.13
2023-04-14T16:31:19.554Z,99015.78
2023-04-14T16:36:23.910Z,98999.94
2023-04-14T16:41:25.847Z,98996.38
2023-04-14T16:46:27.252Z,98998.81
2023-04-14T16:51:28.687Z,99000.22
2023-04-14T16:56:30.479Z,99002.34
2023-04-14T17:01:32.653Z,99002.94
2023-04-14T17:06:34.089Z,99001.84
2023-04-14T17:11:35.449Z,99005.06
2023-04-14T17:16:37.871Z,98997.69
2023-04-14T17:21:39.477Z,99000.44
2023-04-14T17:26:41.055Z,98995.78
2023-04-14T17:31:42.562Z,98998.78
2023-04-14T17:36:44.101Z,98998.53
2023-04-14T17:41:45.808Z,99005.41
2023-04-14T17:46:47.210Z,99012.19
2023-04-14T17:51:48.611Z,99007.31
2023-04-14T17:56:50.237Z,99004.84
2023-04-14T18:01:51.636Z,99003.16
2023-04-14T18:06:53.525Z,99005.63
2023-04-14T18:11:54.899Z,99004.03
2023-04-14T18:16:57.049Z,99013.81
2023-04-14T18:21:58.499Z,99005.06
2023-04-14T18:26:59.866Z,99006.75
2023-04-14T18:32:01.256Z,99005.94
2023-04-14T18:37:03.906Z,99010.25
2023-04-14T18:42:05.384Z,99007.31
2023-04-14T18:47:06.770Z,99011.91
2023-04-14T18:52:08.137Z,99011.06
2023-04-14T18:57:09.887Z,99010.81
2023-04-14T19:02:13.628Z,99007.31
2023-04-14T19:07:15.326Z,99016.28
2023-04-14T19:17:23.016Z,99000.47
2023-04-14T19:22:24.798Z,98997.97
2023-04-14T19:27:26.281Z,99000.44
2023-04-14T19:32:27.678Z,98999.94
2023-04-14T19:37:29.104Z,98989.22
2023-04-14T19:42:30.491Z,99006.72
2023-04-14T19:47:31.906Z,98993.06
2023-04-14T19:52:33.441Z,98984.34
2023-04-14T19:57:34.820Z,98979.66
2023-04-14T20:02:36.328Z,98983.25
2023-04-14T20:07:37.818Z,98986.81
2023-04-14T20:12:40.226Z,98983.50
2023-04-14T20:17:41.644Z,98981.84
2023-04-14T20:22:43.056Z,98971.44
2023-04-14T20:27:44.985Z,98969.53
2023-04-14T20:32:46.381Z,98961.63
2023-04-14T20:37:47.873Z,98962.50
2023-04-14T20:42:49.251Z,98957.78
2023-04-14T20:47:50.732Z,98953.69
2023-04-14T20:52:52.171Z,98947.69
2023-04-14T20:57:53.553Z,98932.94
2023-04-14T21:02:54.989Z,98928.81
2023-04-14T21:07:56.572Z,98937.03
2023-04-14T21:15:30.428Z,98950.41
2023-04-14T21:18:20.091Z,98942.75
2023-04-14T21:23:21.859Z,98946.56
2023-04-14T21:28:23.263Z,98944.13
2023-04-14T21:33:25.147Z,98951.50
2023-04-14T21:38:27.836Z,98946.03
2023-04-14T21:43:29.240Z,98943.84
2023-04-14T21:48:30.871Z,98934.28
2023-04-14T21:53:32.273Z,98931.00
2023-04-14T21:58:33.712Z,98941.69
2023-04-14T22:03:37.549Z,98937.28
2023-04-14T22:08:39.438Z,98937.56
2023-04-14T22:13:41.052Z,98923.91
2023-04-14T22:18:42.490Z,98917.34
2023-04-14T22:23:43.881Z,98913.75
2023-04-14T22:28:45.288Z,98918.69
2023-04-14T22:33:46.862Z,98917.31
2023-04-14T22:38:48.444Z,98912.16
2023-04-14T22:43:49.863Z,98901.22
2023-04-14T22:48:51.434Z,98894.09
2023-04-14T22:53:52.802Z,98895.75
2023-04-14T22:58:57.486Z,98895.75
2023-04-14T23:03:59.191Z,98887.28
2023-04-14T23:09:00.734Z,98891.09
2023-04-14T23:14:02.668Z,98877.97
2023-04-14T23:19:04.300Z,98882.06
2023-04-14T23:24:06.525Z,98876.91
2023-04-14T23:29:08.041Z,98882.91
2023-04-14T23:34:10.713Z,98879.06
2023-04-14T23:39:12.541Z,98867.91
2023-04-14T23:44:13.950Z,98861.03
2023-04-14T23:49:23.721Z,98852.00
2023-04-14T23:54:26.161Z,98845.19
2023-04-14T23:59:28.221Z,98859.09
